sensor_id;sensor_type;location;lat;lon;timestamp;temperature;humidity
66962;HTU21D;53897;51.126;5.868;2022-08-01T00:00:41;27.68;50.04
66962;HTU21D;53897;51.126;5.868;2022-08-01T00:03:07;27.67;50.04
66962;HTU21D;53897;51.126;5.868;2022-08-01T00:05:33;27.67;50.04
66962;HTU21D;53897;51.126;5.868;2022-08-01T00:07:59;27.66;50.04
66962;HTU21D;53897;51.126;5.868;2022-08-01T00:10:24;27.66;50.05
66962;HTU21D;53897;51.126;5.868;2022-08-01T00:12:50;27.66;50.03
66962;HTU21D;53897;51.126;5.868;2022-08-01T00:15:17;27.66;50.03
66962;HTU21D;53897;51.126;5.868;2022-08-01T00:17:43;27.65;50.03
66962;HTU21D;53897;51.126;5.868;2022-08-01T00:20:12;27.65;50.03
66962;HTU21D;53897;51.126;5.868;2022-08-01T00:22:38;27.66;50.02
66962;HTU21D;53897;51.126;5.868;2022-08-01T00:25:05;27.65;50.01
66962;HTU21D;53897;51.126;5.868;2022-08-01T00:27:31;27.65;50.01
66962;HTU21D;53897;51.126;5.868;2022-08-01T00:29:57;27.64;50.02
66962;HTU21D;53897;51.126;5.868;2022-08-01T00:32:23;27.64;49.99
66962;HTU21D;53897;51.126;5.868;2022-08-01T00:34:49;27.64;49.99
66962;HTU21D;53897;51.126;5.868;2022-08-01T00:37:16;27.61;50.00
66962;HTU21D;53897;51.126;5.868;2022-08-01T00:39:42;27.64;50.00
66962;HTU21D;53897;51.126;5.868;2022-08-01T00:42:10;27.61;49.99
66962;HTU21D;53897;51.126;5.868;2022-08-01T00:44:37;27.61;49.98
66962;HTU21D;53897;51.126;5.868;2022-08-01T00:47:04;27.63;49.98
66962;HTU21D;53897;51.126;5.868;2022-08-01T00:49:30;27.61;49.99
66962;HTU21D;53897;51.126;5.868;2022-08-01T00:51:56;27.61;49.99
66962;HTU21D;53897;51.126;5.868;2022-08-01T00:54:27;27.60;49.99
66962;HTU21D;53897;51.126;5.868;2022-08-01T00:56:54;27.60;49.98
66962;HTU21D;53897;51.126;5.868;2022-08-01T00:59:22;27.59;49.99
66962;HTU21D;53897;51.126;5.868;2022-08-01T01:01:48;27.59;49.97
66962;HTU21D;53897;51.126;5.868;2022-08-01T01:04:14;27.59;49.98
66962;HTU21D;53897;51.126;5.868;2022-08-01T01:07:02;27.57;49.96
66962;HTU21D;53897;51.126;5.868;2022-08-01T01:12:13;27.58;49.92
66962;HTU21D;53897;51.126;5.868;2022-08-01T01:14:56;27.57;49.93
66962;HTU21D;53897;51.126;5.868;2022-08-01T01:17:41;27.57;49.95
66962;HTU21D;53897;51.126;5.868;2022-08-01T01:20:12;27.56;49.95
66962;HTU21D;53897;51.126;5.868;2022-08-01T01:22:53;27.56;49.97
66962;HTU21D;53897;51.126;5.868;2022-08-01T01:25:40;27.56;49.96
66962;HTU21D;53897;51.126;5.868;2022-08-01T01:31:10;27.55;49.95
66962;HTU21D;53897;51.126;5.868;2022-08-01T01:33:37;27.55;49.95
66962;HTU21D;53897;51.126;5.868;2022-08-01T01:36:09;27.55;49.95
66962;HTU21D;53897;51.126;5.868;2022-08-01T01:38:42;27.54;49.95
66962;HTU21D;53897;51.126;5.868;2022-08-01T01:41:11;27.53;49.95
66962;HTU21D;53897;51.126;5.868;2022-08-01T01:43:39;27.53;49.95
66962;HTU21D;53897;51.126;5.868;2022-08-01T01:46:07;27.53;49.93
66962;HTU21D;53897;51.126;5.868;2022-08-01T01:48:36;27.52;49.92
66962;HTU21D;53897;51.126;5.868;2022-08-01T01:51:04;27.52;49.92
66962;HTU21D;53897;51.126;5.868;2022-08-01T01:53:33;27.52;49.89
66962;HTU21D;53897;51.126;5.868;2022-08-01T01:56:02;27.51;49.91
66962;HTU21D;53897;51.126;5.868;2022-08-01T01:58:32;27.51;49.90
66962;HTU21D;53897;51.126;5.868;2022-08-01T02:01:00;27.51;49.89
66962;HTU21D;53897;51.126;5.868;2022-08-01T02:03:28;27.52;49.89
66962;HTU21D;53897;51.126;5.868;2022-08-01T02:05:55;27.50;49.89
66962;HTU21D;53897;51.126;5.868;2022-08-01T02:08:24;27.50;49.89
66962;HTU21D;53897;51.126;5.868;2022-08-01T02:10:53;27.50;49.85
66962;HTU21D;53897;51.126;5.868;2022-08-01T02:13:40;27.50;49.86
66962;HTU21D;53897;51.126;5.868;2022-08-01T02:16:08;27.50;49.85
66962;HTU21D;53897;51.126;5.868;2022-08-01T02:18:36;27.49;49.82
66962;HTU21D;53897;51.126;5.868;2022-08-01T02:21:08;27.47;49.83
66962;HTU21D;53897;51.126;5.868;2022-08-01T02:23:36;27.49;49.83
66962;HTU21D;53897;51.126;5.868;2022-08-01T02:26:08;27.49;49.81
66962;HTU21D;53897;51.126;5.868;2022-08-01T02:28:43;27.47;49.82
66962;HTU21D;53897;51.126;5.868;2022-08-01T02:31:16;27.46;49.82
66962;HTU21D;53897;51.126;5.868;2022-08-01T02:34:00;27.47;49.84
66962;HTU21D;53897;51.126;5.868;2022-08-01T02:36:30;27.46;49.83
66962;HTU21D;53897;51.126;5.868;2022-08-01T02:39:03;27.46;49.82
66962;HTU21D;53897;51.126;5.868;2022-08-01T02:41:34;27.46;49.81
66962;HTU21D;53897;51.126;5.868;2022-08-01T02:44:05;27.46;49.81
66962;HTU21D;53897;51.126;5.868;2022-08-01T02:46:37;27.45;49.80
66962;HTU21D;53897;51.126;5.868;2022-08-01T02:49:07;27.45;49.79
66962;HTU21D;53897;51.126;5.868;2022-08-01T02:51:36;27.45;49.77
66962;HTU21D;53897;51.126;5.868;2022-08-01T02:54:06;27.44;49.76
66962;HTU21D;53897;51.126;5.868;2022-08-01T02:56:34;27.44;49.75
66962;HTU21D;53897;51.126;5.868;2022-08-01T02:59:06;27.44;49.74
66962;HTU21D;53897;51.126;5.868;2022-08-01T03:01:34;27.44;49.73
66962;HTU21D;53897;51.126;5.868;2022-08-01T03:04:03;27.43;49.73
66962;HTU21D;53897;51.126;5.868;2022-08-01T03:06:32;27.43;49.73
66962;HTU21D;53897;51.126;5.868;2022-08-01T03:09:00;27.42;49.72
66962;HTU21D;53897;51.126;5.868;2022-08-01T03:11:28;27.41;49.70
66962;HTU21D;53897;51.126;5.868;2022-08-01T03:13:59;27.43;49.65
66962;HTU21D;53897;51.126;5.868;2022-08-01T03:16:26;27.42;49.65
66962;HTU21D;53897;51.126;5.868;2022-08-01T03:18:56;27.40;49.65
66962;HTU21D;53897;51.126;5.868;2022-08-01T03:21:23;27.40;49.65
66962;HTU21D;53897;51.126;5.868;2022-08-01T03:23:50;27.42;49.64
66962;HTU21D;53897;51.126;5.868;2022-08-01T03:26:19;27.40;49.65
66962;HTU21D;53897;51.126;5.868;2022-08-01T03:28:46;27.40;49.64
66962;HTU21D;53897;51.126;5.868;2022-08-01T03:31:14;27.39;49.63
66962;HTU21D;53897;51.126;5.868;2022-08-01T03:33:41;27.39;49.62
66962;HTU21D;53897;51.126;5.868;2022-08-01T03:36:09;27.39;49.61
66962;HTU21D;53897;51.126;5.868;2022-08-01T03:38:40;27.38;49.61
66962;HTU21D;53897;51.126;5.868;2022-08-01T03:41:13;27.37;49.60
66962;HTU21D;53897;51.126;5.868;2022-08-01T03:44:22;27.38;49.60
66962;HTU21D;53897;51.126;5.868;2022-08-01T03:46:46;27.38;49.62
66962;HTU21D;53897;51.126;5.868;2022-08-01T03:49:18;27.37;49.73
66962;HTU21D;53897;51.126;5.868;2022-08-01T03:51:47;27.38;49.80
66962;HTU21D;53897;51.126;5.868;2022-08-01T03:54:21;27.36;49.89
66962;HTU21D;53897;51.126;5.868;2022-08-01T03:56:49;27.34;50.02
66962;HTU21D;53897;51.126;5.868;2022-08-01T03:59:17;27.32;50.13
66962;HTU21D;53897;51.126;5.868;2022-08-01T04:01:45;27.29;50.27
66962;HTU21D;53897;51.126;5.868;2022-08-01T04:04:12;27.28;50.46
66962;HTU21D;53897;51.126;5.868;2022-08-01T04:06:39;27.27;50.58
66962;HTU21D;53897;51.126;5.868;2022-08-01T04:09:07;27.28;50.58
66962;HTU21D;53897;51.126;5.868;2022-08-01T04:11:34;27.28;50.56
66962;HTU21D;53897;51.126;5.868;2022-08-01T04:13:59;27.31;50.56
66962;HTU21D;53897;51.126;5.868;2022-08-01T04:16:25;27.28;50.65
66962;HTU21D;53897;51.126;5.868;2022-08-01T04:18:51;27.26;50.81
66962;HTU21D;53897;51.126;5.868;2022-08-01T04:21:23;27.23;50.95
66962;HTU21D;53897;51.126;5.868;2022-08-01T04:23:54;27.20;51.10
66962;HTU21D;53897;51.126;5.868;2022-08-01T04:26:22;27.17;51.22
66962;HTU21D;53897;51.126;5.868;2022-08-01T04:28:52;27.17;51.29
66962;HTU21D;53897;51.126;5.868;2022-08-01T04:31:19;27.16;51.37
66962;HTU21D;53897;51.126;5.868;2022-08-01T04:33:48;27.14;51.44
66962;HTU21D;53897;51.126;5.868;2022-08-01T04:36:18;27.13;51.50
66962;HTU21D;53897;51.126;5.868;2022-08-01T04:38:48;27.12;51.59
66962;HTU21D;53897;51.126;5.868;2022-08-01T04:41:18;27.11;51.71
66962;HTU21D;53897;51.126;5.868;2022-08-01T04:43:44;27.10;51.77
66962;HTU21D;53897;51.126;5.868;2022-08-01T04:46:13;27.10;51.79
66962;HTU21D;53897;51.126;5.868;2022-08-01T04:48:40;27.08;51.85
66962;HTU21D;53897;51.126;5.868;2022-08-01T04:51:14;27.07;51.90
66962;HTU21D;53897;51.126;5.868;2022-08-01T04:53:41;27.09;51.89
66962;HTU21D;53897;51.126;5.868;2022-08-01T04:56:07;27.11;51.95
66962;HTU21D;53897;51.126;5.868;2022-08-01T04:58:33;27.11;51.99
66962;HTU21D;53897;51.126;5.868;2022-08-01T05:00:58;27.13;51.96
66962;HTU21D;53897;51.126;5.868;2022-08-01T05:03:24;27.17;52.01
66962;HTU21D;53897;51.126;5.868;2022-08-01T05:05:50;27.19;51.92
66962;HTU21D;53897;51.126;5.868;2022-08-01T05:08:15;27.22;51.90
66962;HTU21D;53897;51.126;5.868;2022-08-01T05:10:41;27.24;51.88
66962;HTU21D;53897;51.126;5.868;2022-08-01T05:13:08;27.27;51.88
66962;HTU21D;53897;51.126;5.868;2022-08-01T05:15:35;27.26;52.02
66962;HTU21D;53897;51.126;5.868;2022-08-01T05:18:04;27.28;52.20
66962;HTU21D;53897;51.126;5.868;2022-08-01T05:20:30;27.27;52.24
66962;HTU21D;53897;51.126;5.868;2022-08-01T05:22:55;27.27;52.26
66962;HTU21D;53897;51.126;5.868;2022-08-01T05:25:22;27.27;52.30
66962;HTU21D;53897;51.126;5.868;2022-08-01T05:27:49;27.27;52.38
66962;HTU21D;53897;51.126;5.868;2022-08-01T05:30:15;27.25;52.43
66962;HTU21D;53897;51.126;5.868;2022-08-01T05:32:41;27.27;52.49
66962;HTU21D;53897;51.126;5.868;2022-08-01T05:35:08;27.26;52.57
66962;HTU21D;53897;51.126;5.868;2022-08-01T05:37:34;27.26;52.59
66962;HTU21D;53897;51.126;5.868;2022-08-01T05:40:00;27.26;52.62
66962;HTU21D;53897;51.126;5.868;2022-08-01T05:42:26;27.25;52.71
66962;HTU21D;53897;51.126;5.868;2022-08-01T05:44:52;27.25;52.87
66962;HTU21D;53897;51.126;5.868;2022-08-01T05:47:18;27.24;53.01
66962;HTU21D;53897;51.126;5.868;2022-08-01T05:49:45;27.23;53.14
66962;HTU21D;53897;51.126;5.868;2022-08-01T05:52:11;27.22;53.26
66962;HTU21D;53897;51.126;5.868;2022-08-01T05:54:37;27.22;53.37
66962;HTU21D;53897;51.126;5.868;2022-08-01T05:57:03;27.19;53.50
66962;HTU21D;53897;51.126;5.868;2022-08-01T05:59:29;27.17;53.56
66962;HTU21D;53897;51.126;5.868;2022-08-01T06:01:56;27.17;53.75
66962;HTU21D;53897;51.126;5.868;2022-08-01T06:04:22;27.16;53.84
66962;HTU21D;53897;51.126;5.868;2022-08-01T06:06:48;27.17;53.91
66962;HTU21D;53897;51.126;5.868;2022-08-01T06:09:13;27.16;54.02
66962;HTU21D;53897;51.126;5.868;2022-08-01T06:11:39;27.17;54.00
66962;HTU21D;53897;51.126;5.868;2022-08-01T06:14:05;27.15;54.01
66962;HTU21D;53897;51.126;5.868;2022-08-01T06:16:31;27.14;54.04
66962;HTU21D;53897;51.126;5.868;2022-08-01T06:18:57;27.14;54.10
66962;HTU21D;53897;51.126;5.868;2022-08-01T06:21:23;27.13;54.10
66962;HTU21D;53897;51.126;5.868;2022-08-01T06:23:49;27.14;54.13
66962;HTU21D;53897;51.126;5.868;2022-08-01T06:26:18;27.13;54.10
66962;HTU21D;53897;51.126;5.868;2022-08-01T06:28:44;27.10;54.13
66962;HTU21D;53897;51.126;5.868;2022-08-01T06:31:09;27.10;54.14
66962;HTU21D;53897;51.126;5.868;2022-08-01T06:33:37;27.10;54.18
66962;HTU21D;53897;51.126;5.868;2022-08-01T06:36:03;27.09;54.20
66962;HTU21D;53897;51.126;5.868;2022-08-01T06:38:29;27.08;54.34
66962;HTU21D;53897;51.126;5.868;2022-08-01T06:40:55;27.08;54.42
66962;HTU21D;53897;51.126;5.868;2022-08-01T06:43:20;27.08;54.44
66962;HTU21D;53897;51.126;5.868;2022-08-01T06:45:47;27.06;54.46
66962;HTU21D;53897;51.126;5.868;2022-08-01T06:48:13;27.07;54.41
66962;HTU21D;53897;51.126;5.868;2022-08-01T06:50:39;27.05;54.54
66962;HTU21D;53897;51.126;5.868;2022-08-01T06:53:04;27.05;54.64
66962;HTU21D;53897;51.126;5.868;2022-08-01T06:55:30;27.05;54.74
66962;HTU21D;53897;51.126;5.868;2022-08-01T06:57:56;27.06;54.84
66962;HTU21D;53897;51.126;5.868;2022-08-01T07:00:25;27.05;54.83
66962;HTU21D;53897;51.126;5.868;2022-08-01T07:02:53;27.02;54.81
66962;HTU21D;53897;51.126;5.868;2022-08-01T07:05:20;27.06;54.91
66962;HTU21D;53897;51.126;5.868;2022-08-01T07:07:46;27.05;54.91
66962;HTU21D;53897;51.126;5.868;2022-08-01T07:10:12;27.05;54.83
66962;HTU21D;53897;51.126;5.868;2022-08-01T07:12:38;27.06;54.74
66962;HTU21D;53897;51.126;5.868;2022-08-01T07:15:06;27.02;54.73
66962;HTU21D;53897;51.126;5.868;2022-08-01T07:17:32;27.01;54.75
66962;HTU21D;53897;51.126;5.868;2022-08-01T07:19:58;27.02;54.73
66962;HTU21D;53897;51.126;5.868;2022-08-01T07:22:23;27.02;54.71
66962;HTU21D;53897;51.126;5.868;2022-08-01T07:24:49;27.02;54.65
66962;HTU21D;53897;51.126;5.868;2022-08-01T07:27:15;27.00;54.65
66962;HTU21D;53897;51.126;5.868;2022-08-01T07:29:41;26.98;54.69
66962;HTU21D;53897;51.126;5.868;2022-08-01T07:32:07;26.99;54.67
66962;HTU21D;53897;51.126;5.868;2022-08-01T07:34:32;26.98;54.66
66962;HTU21D;53897;51.126;5.868;2022-08-01T07:36:58;26.96;55.04
66962;HTU21D;53897;51.126;5.868;2022-08-01T07:39:24;26.93;55.26
66962;HTU21D;53897;51.126;5.868;2022-08-01T07:41:49;26.91;55.45
66962;HTU21D;53897;51.126;5.868;2022-08-01T07:44:15;26.90;55.61
66962;HTU21D;53897;51.126;5.868;2022-08-01T07:46:41;26.87;55.71
66962;HTU21D;53897;51.126;5.868;2022-08-01T07:49:07;26.85;55.71
66962;HTU21D;53897;51.126;5.868;2022-08-01T07:51:33;26.82;55.64
66962;HTU21D;53897;51.126;5.868;2022-08-01T07:53:59;26.83;55.55
66962;HTU21D;53897;51.126;5.868;2022-08-01T07:56:24;26.86;55.43
66962;HTU21D;53897;51.126;5.868;2022-08-01T07:58:51;26.84;55.29
66962;HTU21D;53897;51.126;5.868;2022-08-01T08:01:17;26.84;55.22
66962;HTU21D;53897;51.126;5.868;2022-08-01T08:03:43;26.86;55.16
66962;HTU21D;53897;51.126;5.868;2022-08-01T08:06:09;26.86;55.13
66962;HTU21D;53897;51.126;5.868;2022-08-01T08:08:34;26.86;55.21
66962;HTU21D;53897;51.126;5.868;2022-08-01T08:11:01;26.87;55.38
66962;HTU21D;53897;51.126;5.868;2022-08-01T08:13:27;26.87;55.26
66962;HTU21D;53897;51.126;5.868;2022-08-01T08:15:53;26.87;55.03
66962;HTU21D;53897;51.126;5.868;2022-08-01T08:18:18;26.87;54.84
66962;HTU21D;53897;51.126;5.868;2022-08-01T08:20:44;26.89;54.78
66962;HTU21D;53897;51.126;5.868;2022-08-01T08:23:11;26.87;54.72
66962;HTU21D;53897;51.126;5.868;2022-08-01T08:25:55;26.89;54.65
66962;HTU21D;53897;51.126;5.868;2022-08-01T08:28:20;26.89;54.55
66962;HTU21D;53897;51.126;5.868;2022-08-01T08:30:46;26.91;54.39
66962;HTU21D;53897;51.126;5.868;2022-08-01T08:33:12;26.92;54.27
66962;HTU21D;53897;51.126;5.868;2022-08-01T08:35:41;26.92;54.25
66962;HTU21D;53897;51.126;5.868;2022-08-01T08:38:08;26.92;54.18
66962;HTU21D;53897;51.126;5.868;2022-08-01T08:40:36;26.93;54.13
66962;HTU21D;53897;51.126;5.868;2022-08-01T08:43:05;26.93;54.01
66962;HTU21D;53897;51.126;5.868;2022-08-01T08:45:32;26.95;53.92
66962;HTU21D;53897;51.126;5.868;2022-08-01T08:47:58;26.97;53.83
66962;HTU21D;53897;51.126;5.868;2022-08-01T08:50:27;26.97;53.70
66962;HTU21D;53897;51.126;5.868;2022-08-01T08:52:55;26.97;53.60
66962;HTU21D;53897;51.126;5.868;2022-08-01T08:55:22;26.98;53.50
66962;HTU21D;53897;51.126;5.868;2022-08-01T08:57:50;27.00;53.39
66962;HTU21D;53897;51.126;5.868;2022-08-01T09:00:16;27.00;53.27
66962;HTU21D;53897;51.126;5.868;2022-08-01T09:02:47;27.02;53.20
66962;HTU21D;53897;51.126;5.868;2022-08-01T09:05:15;27.05;53.11
66962;HTU21D;53897;51.126;5.868;2022-08-01T09:07:42;27.05;53.05
66962;HTU21D;53897;51.126;5.868;2022-08-01T09:10:08;27.07;52.99
66962;HTU21D;53897;51.126;5.868;2022-08-01T09:12:37;27.08;52.94
66962;HTU21D;53897;51.126;5.868;2022-08-01T09:15:03;27.08;52.88
66962;HTU21D;53897;51.126;5.868;2022-08-01T09:17:39;27.09;52.85
66962;HTU21D;53897;51.126;5.868;2022-08-01T09:20:05;27.11;52.82
66962;HTU21D;53897;51.126;5.868;2022-08-01T09:22:33;27.10;52.84
66962;HTU21D;53897;51.126;5.868;2022-08-01T09:25:03;27.13;52.82
66962;HTU21D;53897;51.126;5.868;2022-08-01T09:27:30;27.13;52.82
66962;HTU21D;53897;51.126;5.868;2022-08-01T09:30:08;27.13;52.78
66962;HTU21D;53897;51.126;5.868;2022-08-01T09:32:34;27.15;52.73
66962;HTU21D;53897;51.126;5.868;2022-08-01T09:35:22;27.17;52.68
66962;HTU21D;53897;51.126;5.868;2022-08-01T09:37:48;27.17;52.63
66962;HTU21D;53897;51.126;5.868;2022-08-01T09:40:14;27.20;52.57
66962;HTU21D;53897;51.126;5.868;2022-08-01T09:42:39;27.22;52.52
66962;HTU21D;53897;51.126;5.868;2022-08-01T09:45:06;27.23;52.46
66962;HTU21D;53897;51.126;5.868;2022-08-01T09:47:39;27.24;52.40
66962;HTU21D;53897;51.126;5.868;2022-08-01T09:50:05;27.25;52.38
66962;HTU21D;53897;51.126;5.868;2022-08-01T09:52:31;27.26;52.35
66962;HTU21D;53897;51.126;5.868;2022-08-01T09:55:04;27.27;52.30
66962;HTU21D;53897;51.126;5.868;2022-08-01T09:57:30;27.27;52.28
66962;HTU21D;53897;51.126;5.868;2022-08-01T09:59:59;27.29;52.32
66962;HTU21D;53897;51.126;5.868;2022-08-01T10:02:34;27.30;52.38
66962;HTU21D;53897;51.126;5.868;2022-08-01T10:05:04;27.34;52.33
66962;HTU21D;53897;51.126;5.868;2022-08-01T10:07:30;27.35;52.28
66962;HTU21D;53897;51.126;5.868;2022-08-01T10:10:09;27.37;52.25
66962;HTU21D;53897;51.126;5.868;2022-08-01T10:12:36;27.39;52.17
66962;HTU21D;53897;51.126;5.868;2022-08-01T10:15:03;27.39;52.09
66962;HTU21D;53897;51.126;5.868;2022-08-01T10:17:32;27.38;52.10
66962;HTU21D;53897;51.126;5.868;2022-08-01T10:20:02;27.37;52.14
66962;HTU21D;53897;51.126;5.868;2022-08-01T10:22:30;27.38;52.11
66962;HTU21D;53897;51.126;5.868;2022-08-01T10:25:02;27.39;52.09
66962;HTU21D;53897;51.126;5.868;2022-08-01T10:27:29;27.41;52.05
66962;HTU21D;53897;51.126;5.868;2022-08-01T10:29:59;27.43;52.01
66962;HTU21D;53897;51.126;5.868;2022-08-01T10:32:34;27.45;51.96
66962;HTU21D;53897;51.126;5.868;2022-08-01T10:35:03;27.47;51.91
66962;HTU21D;53897;51.126;5.868;2022-08-01T10:37:30;27.49;51.86
66962;HTU21D;53897;51.126;5.868;2022-08-01T10:39:56;27.50;51.79
66962;HTU21D;53897;51.126;5.868;2022-08-01T10:42:22;27.51;51.73
66962;HTU21D;53897;51.126;5.868;2022-08-01T10:44:49;27.52;51.69
66962;HTU21D;53897;51.126;5.868;2022-08-01T10:47:37;27.53;51.65
66962;HTU21D;53897;51.126;5.868;2022-08-01T10:50:14;27.54;51.59
66962;HTU21D;53897;51.126;5.868;2022-08-01T10:52:41;27.55;51.57
66962;HTU21D;53897;51.126;5.868;2022-08-01T10:55:08;27.55;51.53
66962;HTU21D;53897;51.126;5.868;2022-08-01T10:57:44;27.58;51.49
66962;HTU21D;53897;51.126;5.868;2022-08-01T11:00:18;27.58;51.44
66962;HTU21D;53897;51.126;5.868;2022-08-01T11:03:01;27.59;51.40
66962;HTU21D;53897;51.126;5.868;2022-08-01T11:05:34;27.60;51.36
66962;HTU21D;53897;51.126;5.868;2022-08-01T11:08:10;27.61;51.31
66962;HTU21D;53897;51.126;5.868;2022-08-01T11:10:41;27.61;51.27
66962;HTU21D;53897;51.126;5.868;2022-08-01T11:13:10;27.63;51.25
66962;HTU21D;53897;51.126;5.868;2022-08-01T11:15:38;27.65;51.19
66962;HTU21D;53897;51.126;5.868;2022-08-01T11:20:59;27.67;51.12
66962;HTU21D;53897;51.126;5.868;2022-08-01T11:23:27;27.67;51.08
66962;HTU21D;53897;51.126;5.868;2022-08-01T11:28:21;27.69;50.97
66962;HTU21D;53897;51.126;5.868;2022-08-01T11:30:51;27.69;50.92
66962;HTU21D;53897;51.126;5.868;2022-08-01T11:41:27;27.72;50.61
66962;HTU21D;53897;51.126;5.868;2022-08-01T11:44:09;27.72;50.62
66962;HTU21D;53897;51.126;5.868;2022-08-01T11:46:58;27.73;50.50
66962;HTU21D;53897;51.126;5.868;2022-08-01T11:54:32;27.74;49.98
66962;HTU21D;53897;51.126;5.868;2022-08-01T11:57:01;27.76;50.01
66962;HTU21D;53897;51.126;5.868;2022-08-01T11:59:27;27.76;50.02
66962;HTU21D;53897;51.126;5.868;2022-08-01T12:01:53;27.76;49.98
66962;HTU21D;53897;51.126;5.868;2022-08-01T12:04:19;27.78;49.98
66962;HTU21D;53897;51.126;5.868;2022-08-01T12:06:45;27.78;49.96
66962;HTU21D;53897;51.126;5.868;2022-08-01T12:09:15;27.79;49.95
66962;HTU21D;53897;51.126;5.868;2022-08-01T12:11:41;27.80;49.96
66962;HTU21D;53897;51.126;5.868;2022-08-01T12:14:07;27.80;49.98
66962;HTU21D;53897;51.126;5.868;2022-08-01T12:16:33;27.80;49.98
66962;HTU21D;53897;51.126;5.868;2022-08-01T12:19:01;27.81;49.98
66962;HTU21D;53897;51.126;5.868;2022-08-01T12:21:27;27.81;49.99
66962;HTU21D;53897;51.126;5.868;2022-08-01T12:24:00;27.82;50.00
66962;HTU21D;53897;51.126;5.868;2022-08-01T12:26:41;27.82;50.01
66962;HTU21D;53897;51.126;5.868;2022-08-01T12:29:07;27.82;49.99
66962;HTU21D;53897;51.126;5.868;2022-08-01T12:31:34;27.83;50.02
66962;HTU21D;53897;51.126;5.868;2022-08-01T12:34:24;27.83;50.01
66962;HTU21D;53897;51.126;5.868;2022-08-01T12:36:50;27.84;50.01
66962;HTU21D;53897;51.126;5.868;2022-08-01T12:39:15;27.84;50.02
66962;HTU21D;53897;51.126;5.868;2022-08-01T12:41:43;27.84;50.02
66962;HTU21D;53897;51.126;5.868;2022-08-01T12:44:16;27.85;50.02
66962;HTU21D;53897;51.126;5.868;2022-08-01T12:46:42;27.85;50.01
66962;HTU21D;53897;51.126;5.868;2022-08-01T12:49:08;27.86;50.02
66962;HTU21D;53897;51.126;5.868;2022-08-01T12:51:35;27.86;50.02
66962;HTU21D;53897;51.126;5.868;2022-08-01T12:54:01;27.86;50.05
66962;HTU21D;53897;51.126;5.868;2022-08-01T12:56:32;27.86;50.05
66962;HTU21D;53897;51.126;5.868;2022-08-01T12:58:58;27.86;50.04
66962;HTU21D;53897;51.126;5.868;2022-08-01T13:01:28;27.86;50.02
66962;HTU21D;53897;51.126;5.868;2022-08-01T13:03:59;27.87;49.99
66962;HTU21D;53897;51.126;5.868;2022-08-01T13:06:28;27.87;49.97
66962;HTU21D;53897;51.126;5.868;2022-08-01T13:08:54;27.87;49.95
66962;HTU21D;53897;51.126;5.868;2022-08-01T13:11:20;27.88;49.95
66962;HTU21D;53897;51.126;5.868;2022-08-01T13:13:48;27.88;49.95
66962;HTU21D;53897;51.126;5.868;2022-08-01T13:16:20;27.89;49.92
66962;HTU21D;53897;51.126;5.868;2022-08-01T13:18:54;27.88;49.98
66962;HTU21D;53897;51.126;5.868;2022-08-01T13:21:24;27.88;50.06
66962;HTU21D;53897;51.126;5.868;2022-08-01T13:24:04;27.87;50.08
66962;HTU21D;53897;51.126;5.868;2022-08-01T13:26:50;27.87;50.11
66962;HTU21D;53897;51.126;5.868;2022-08-01T13:29:18;27.88;50.14
66962;HTU21D;53897;51.126;5.868;2022-08-01T13:31:45;27.89;50.14
66962;HTU21D;53897;51.126;5.868;2022-08-01T13:34:11;27.90;50.15
66962;HTU21D;53897;51.126;5.868;2022-08-01T13:36:39;27.91;50.14
66962;HTU21D;53897;51.126;5.868;2022-08-01T13:39:06;27.91;50.13
66962;HTU21D;53897;51.126;5.868;2022-08-01T13:41:51;27.93;50.11
66962;HTU21D;53897;51.126;5.868;2022-08-01T13:44:17;27.94;50.11
66962;HTU21D;53897;51.126;5.868;2022-08-01T13:46:44;27.94;50.11
66962;HTU21D;53897;51.126;5.868;2022-08-01T13:49:11;27.95;50.09
66962;HTU21D;53897;51.126;5.868;2022-08-01T13:51:38;27.95;50.08
66962;HTU21D;53897;51.126;5.868;2022-08-01T13:54:05;27.96;50.08
66962;HTU21D;53897;51.126;5.868;2022-08-01T13:56:31;27.96;50.06
66962;HTU21D;53897;51.126;5.868;2022-08-01T13:58:57;27.96;50.07
66962;HTU21D;53897;51.126;5.868;2022-08-01T14:01:24;27.97;50.08
66962;HTU21D;53897;51.126;5.868;2022-08-01T14:03:50;27.97;50.06
66962;HTU21D;53897;51.126;5.868;2022-08-01T14:06:18;27.99;50.07
66962;HTU21D;53897;51.126;5.868;2022-08-01T14:08:45;27.98;50.07
66962;HTU21D;53897;51.126;5.868;2022-08-01T14:11:11;27.99;50.07
66962;HTU21D;53897;51.126;5.868;2022-08-01T14:13:36;27.99;50.08
66962;HTU21D;53897;51.126;5.868;2022-08-01T14:16:04;27.99;50.08
66962;HTU21D;53897;51.126;5.868;2022-08-01T14:18:30;28.00;50.08
66962;HTU21D;53897;51.126;5.868;2022-08-01T14:20:56;28.00;50.16
66962;HTU21D;53897;51.126;5.868;2022-08-01T14:23:22;27.99;50.18
66962;HTU21D;53897;51.126;5.868;2022-08-01T14:25:47;28.01;50.19
66962;HTU21D;53897;51.126;5.868;2022-08-01T14:28:14;28.00;50.14
66962;HTU21D;53897;51.126;5.868;2022-08-01T14:30:39;28.01;50.14
66962;HTU21D;53897;51.126;5.868;2022-08-01T14:33:09;28.01;50.14
66962;HTU21D;53897;51.126;5.868;2022-08-01T14:35:34;28.03;50.15
66962;HTU21D;53897;51.126;5.868;2022-08-01T14:38:00;28.01;50.20
66962;HTU21D;53897;51.126;5.868;2022-08-01T14:40:26;28.00;50.19
66962;HTU21D;53897;51.126;5.868;2022-08-01T14:42:52;28.00;50.14
66962;HTU21D;53897;51.126;5.868;2022-08-01T14:45:17;28.02;50.11
66962;HTU21D;53897;51.126;5.868;2022-08-01T14:47:43;28.00;50.13
66962;HTU21D;53897;51.126;5.868;2022-08-01T14:50:12;28.01;50.14
66962;HTU21D;53897;51.126;5.868;2022-08-01T14:52:40;28.02;50.19
66962;HTU21D;53897;51.126;5.868;2022-08-01T14:55:08;28.03;50.43
66962;HTU21D;53897;51.126;5.868;2022-08-01T14:57:36;28.02;50.78
66962;HTU21D;53897;51.126;5.868;2022-08-01T15:00:05;28.03;51.04
66962;HTU21D;53897;51.126;5.868;2022-08-01T15:02:31;28.03;51.08
66962;HTU21D;53897;51.126;5.868;2022-08-01T15:04:57;28.04;51.15
66962;HTU21D;53897;51.126;5.868;2022-08-01T15:07:24;28.04;51.24
66962;HTU21D;53897;51.126;5.868;2022-08-01T15:09:50;28.05;51.17
66962;HTU21D;53897;51.126;5.868;2022-08-01T15:12:16;28.05;51.11
66962;HTU21D;53897;51.126;5.868;2022-08-01T15:14:41;28.09;51.00
66962;HTU21D;53897;51.126;5.868;2022-08-01T15:17:22;28.06;50.92
66962;HTU21D;53897;51.126;5.868;2022-08-01T15:19:50;28.08;50.88
66962;HTU21D;53897;51.126;5.868;2022-08-01T15:22:16;28.08;50.88
66962;HTU21D;53897;51.126;5.868;2022-08-01T15:24:42;28.09;51.11
66962;HTU21D;53897;51.126;5.868;2022-08-01T15:27:11;28.09;51.04
66962;HTU21D;53897;51.126;5.868;2022-08-01T15:29:37;28.09;51.07
66962;HTU21D;53897;51.126;5.868;2022-08-01T15:32:04;28.11;51.24
66962;HTU21D;53897;51.126;5.868;2022-08-01T15:34:32;28.12;51.50
66962;HTU21D;53897;51.126;5.868;2022-08-01T15:36:58;28.13;51.77
66962;HTU21D;53897;51.126;5.868;2022-08-01T15:39:24;28.12;51.75
66962;HTU21D;53897;51.126;5.868;2022-08-01T15:41:50;28.14;51.71
66962;HTU21D;53897;51.126;5.868;2022-08-01T15:44:16;28.15;51.82
66962;HTU21D;53897;51.126;5.868;2022-08-01T15:46:48;28.15;51.75